sensor_id;sensor_type;location;lat;lon;timestamp;P1;durP1;ratioP1;P2;durP2;ratioP2
5121;SDS011;2563;52.242;7.956;2022-08-21T00:00:13;13.70;;;4.70;;
5121;SDS011;2563;52.242;7.956;2022-08-21T00:02:47;10.13;;;4.93;;
5121;SDS011;2563;52.242;7.956;2022-08-21T00:05:15;12.57;;;4.60;;
5121;SDS011;2563;52.242;7.956;2022-08-21T00:07:41;9.30;;;5.50;;
5121;SDS011;2563;52.242;7.956;2022-08-21T00:10:07;8.87;;;5.50;;
5121;SDS011;2563;52.242;7.956;2022-08-21T00:12:33;9.73;;;5.73;;
5121;SDS011;2563;52.242;7.956;2022-08-21T00:14:58;14.07;;;6.03;;
5121;SDS011;2563;52.242;7.956;2022-08-21T00:17:24;9.33;;;4.17;;
5121;SDS011;2563;52.242;7.956;2022-08-21T00:19:49;7.10;;;4.10;;
5121;SDS011;2563;52.242;7.956;2022-08-21T00:22:14;8.60;;;4.10;;
5121;SDS011;2563;52.242;7.956;2022-08-21T00:24:40;9.13;;;3.90;;
5121;SDS011;2563;52.242;7.956;2022-08-21T00:27:05;9.13;;;4.33;;
5121;SDS011;2563;52.242;7.956;2022-08-21T00:29:31;9.13;;;4.00;;
5121;SDS011;2563;52.242;7.956;2022-08-21T00:31:56;10.47;;;5.17;;
5121;SDS011;2563;52.242;7.956;2022-08-21T00:34:21;13.83;;;5.60;;
5121;SDS011;2563;52.242;7.956;2022-08-21T00:36:47;9.70;;;4.90;;
5121;SDS011;2563;52.242;7.956;2022-08-21T00:39:12;12.10;;;5.67;;
5121;SDS011;2563;52.242;7.956;2022-08-21T00:41:38;10.90;;;5.63;;
5121;SDS011;2563;52.242;7.956;2022-08-21T00:44:08;13.33;;;6.13;;
5121;SDS011;2563;52.242;7.956;2022-08-21T00:46:37;8.43;;;4.43;;
5121;SDS011;2563;52.242;7.956;2022-08-21T00:49:04;9.13;;;4.20;;
5121;SDS011;2563;52.242;7.956;2022-08-21T00:52:03;7.97;;;3.87;;
5121;SDS011;2563;52.242;7.956;2022-08-21T00:54:24;8.90;;;3.90;;
5121;SDS011;2563;52.242;7.956;2022-08-21T00:57:03;10.97;;;3.83;;
5121;SDS011;2563;52.242;7.956;2022-08-21T00:59:36;7.80;;;4.30;;
5121;SDS011;2563;52.242;7.956;2022-08-21T01:02:05;7.47;;;3.60;;
5121;SDS011;2563;52.242;7.956;2022-08-21T01:04:32;13.10;;;3.37;;
5121;SDS011;2563;52.242;7.956;2022-08-21T01:06:58;6.70;;;3.23;;
5121;SDS011;2563;52.242;7.956;2022-08-21T01:09:23;10.70;;;3.60;;
5121;SDS011;2563;52.242;7.956;2022-08-21T01:11:48;6.97;;;3.20;;
5121;SDS011;2563;52.242;7.956;2022-08-21T01:14:14;12.37;;;3.60;;
5121;SDS011;2563;52.242;7.956;2022-08-21T01:16:40;7.23;;;3.80;;
5121;SDS011;2563;52.242;7.956;2022-08-21T01:19:09;8.50;;;3.57;;
5121;SDS011;2563;52.242;7.956;2022-08-21T01:21:36;15.07;;;3.70;;
5121;SDS011;2563;52.242;7.956;2022-08-21T01:24:01;5.70;;;3.23;;
5121;SDS011;2563;52.242;7.956;2022-08-21T01:26:29;7.10;;;3.10;;
5121;SDS011;2563;52.242;7.956;2022-08-21T01:31:41;6.97;;;3.60;;
5121;SDS011;2563;52.242;7.956;2022-08-21T01:34:07;9.43;;;3.73;;
5121;SDS011;2563;52.242;7.956;2022-08-21T01:36:33;6.17;;;3.20;;
5121;SDS011;2563;52.242;7.956;2022-08-21T01:38:59;16.17;;;3.60;;
5121;SDS011;2563;52.242;7.956;2022-08-21T01:41:25;8.53;;;3.60;;
5121;SDS011;2563;52.242;7.956;2022-08-21T01:43:50;9.53;;;3.20;;
5121;SDS011;2563;52.242;7.956;2022-08-21T01:46:16;12.70;;;3.60;;
5121;SDS011;2563;52.242;7.956;2022-08-21T01:48:42;15.70;;;3.80;;
5121;SDS011;2563;52.242;7.956;2022-08-21T01:51:08;9.60;;;3.70;;
5121;SDS011;2563;52.242;7.956;2022-08-21T01:53:34;11.83;;;3.30;;
5121;SDS011;2563;52.242;7.956;2022-08-21T01:56:00;9.23;;;3.33;;
5121;SDS011;2563;52.242;7.956;2022-08-21T01:58:27;15.47;;;4.00;;
5121;SDS011;2563;52.242;7.956;2022-08-21T02:00:52;7.97;;;2.90;;
5121;SDS011;2563;52.242;7.956;2022-08-21T02:03:18;6.70;;;3.30;;
5121;SDS011;2563;52.242;7.956;2022-08-21T02:05:43;12.40;;;3.37;;
5121;SDS011;2563;52.242;7.956;2022-08-21T02:08:08;6.50;;;3.13;;
5121;SDS011;2563;52.242;7.956;2022-08-21T02:10:34;7.50;;;3.63;;
5121;SDS011;2563;52.242;7.956;2022-08-21T02:13:00;11.00;;;3.53;;
5121;SDS011;2563;52.242;7.956;2022-08-21T02:15:26;10.93;;;3.43;;
5121;SDS011;2563;52.242;7.956;2022-08-21T02:17:54;4.90;;;2.60;;
5121;SDS011;2563;52.242;7.956;2022-08-21T02:22:55;8.00;;;3.90;;
5121;SDS011;2563;52.242;7.956;2022-08-21T02:25:21;8.50;;;3.10;;
5121;SDS011;2563;52.242;7.956;2022-08-21T02:27:48;8.47;;;3.10;;
5121;SDS011;2563;52.242;7.956;2022-08-21T02:30:18;10.67;;;3.27;;
5121;SDS011;2563;52.242;7.956;2022-08-21T02:32:49;7.00;;;3.07;;
5121;SDS011;2563;52.242;7.956;2022-08-21T02:35:14;5.70;;;3.13;;
5121;SDS011;2563;52.242;7.956;2022-08-21T02:37:44;8.23;;;3.70;;
5121;SDS011;2563;52.242;7.956;2022-08-21T02:40:14;6.60;;;3.20;;
5121;SDS011;2563;52.242;7.956;2022-08-21T02:42:42;6.33;;;3.00;;
5121;SDS011;2563;52.242;7.956;2022-08-21T02:45:08;6.93;;;3.60;;
5121;SDS011;2563;52.242;7.956;2022-08-21T02:47:34;6.30;;;3.00;;
5121;SDS011;2563;52.242;7.956;2022-08-21T02:49:59;6.60;;;3.37;;
5121;SDS011;2563;52.242;7.956;2022-08-21T02:52:25;10.10;;;3.27;;
5121;SDS011;2563;52.242;7.956;2022-08-21T02:54:50;6.67;;;3.40;;
5121;SDS011;2563;52.242;7.956;2022-08-21T02:57:15;9.43;;;3.07;;
5121;SDS011;2563;52.242;7.956;2022-08-21T02:59:41;7.67;;;3.13;;
5121;SDS011;2563;52.242;7.956;2022-08-21T03:02:06;8.20;;;3.20;;
5121;SDS011;2563;52.242;7.956;2022-08-21T03:04:32;12.60;;;3.33;;
5121;SDS011;2563;52.242;7.956;2022-08-21T03:06:58;8.00;;;3.10;;
5121;SDS011;2563;52.242;7.956;2022-08-21T03:09:23;8.87;;;3.27;;
5121;SDS011;2563;52.242;7.956;2022-08-21T03:11:49;9.57;;;3.27;;
5121;SDS011;2563;52.242;7.956;2022-08-21T03:14:16;8.80;;;3.60;;
5121;SDS011;2563;52.242;7.956;2022-08-21T03:16:42;9.37;;;3.80;;
5121;SDS011;2563;52.242;7.956;2022-08-21T03:19:08;9.77;;;4.37;;
5121;SDS011;2563;52.242;7.956;2022-08-21T03:21:33;7.60;;;3.70;;
5121;SDS011;2563;52.242;7.956;2022-08-21T03:23:58;15.57;;;4.07;;
5121;SDS011;2563;52.242;7.956;2022-08-21T03:26:24;9.67;;;4.20;;
5121;SDS011;2563;52.242;7.956;2022-08-21T03:28:49;9.83;;;3.70;;
5121;SDS011;2563;52.242;7.956;2022-08-21T03:31:15;10.00;;;3.80;;
5121;SDS011;2563;52.242;7.956;2022-08-21T03:33:42;8.87;;;4.30;;
5121;SDS011;2563;52.242;7.956;2022-08-21T03:36:07;6.00;;;3.60;;
5121;SDS011;2563;52.242;7.956;2022-08-21T03:38:34;11.60;;;3.83;;
5121;SDS011;2563;52.242;7.956;2022-08-21T03:41:00;7.73;;;4.10;;
5121;SDS011;2563;52.242;7.956;2022-08-21T03:43:26;10.57;;;4.73;;
5121;SDS011;2563;52.242;7.956;2022-08-21T03:45:52;11.00;;;4.60;;
5121;SDS011;2563;52.242;7.956;2022-08-21T03:48:18;9.53;;;4.73;;
5121;SDS011;2563;52.242;7.956;2022-08-21T03:50:44;13.70;;;4.73;;
5121;SDS011;2563;52.242;7.956;2022-08-21T03:53:11;9.43;;;4.40;;
5121;SDS011;2563;52.242;7.956;2022-08-21T03:55:38;11.00;;;4.70;;
5121;SDS011;2563;52.242;7.956;2022-08-21T03:58:04;11.27;;;4.87;;
5121;SDS011;2563;52.242;7.956;2022-08-21T04:00:29;9.17;;;4.60;;
5121;SDS011;2563;52.242;7.956;2022-08-21T04:02:55;14.73;;;5.57;;
5121;SDS011;2563;52.242;7.956;2022-08-21T04:05:20;13.60;;;4.80;;
5121;SDS011;2563;52.242;7.956;2022-08-21T04:07:59;9.73;;;4.93;;
5121;SDS011;2563;52.242;7.956;2022-08-21T04:10:26;11.63;;;4.83;;
5121;SDS011;2563;52.242;7.956;2022-08-21T04:12:53;10.83;;;4.80;;
5121;SDS011;2563;52.242;7.956;2022-08-21T04:15:20;11.40;;;4.73;;
5121;SDS011;2563;52.242;7.956;2022-08-21T04:17:46;15.20;;;4.53;;
5121;SDS011;2563;52.242;7.956;2022-08-21T04:20:12;9.27;;;4.93;;
5121;SDS011;2563;52.242;7.956;2022-08-21T04:22:37;12.43;;;5.07;;
5121;SDS011;2563;52.242;7.956;2022-08-21T04:25:03;12.37;;;4.50;;
5121;SDS011;2563;52.242;7.956;2022-08-21T04:27:29;12.50;;;4.93;;
5121;SDS011;2563;52.242;7.956;2022-08-21T04:29:55;10.57;;;4.60;;
5121;SDS011;2563;52.242;7.956;2022-08-21T04:32:26;11.50;;;4.60;;
5121;SDS011;2563;52.242;7.956;2022-08-21T04:35:03;12.40;;;4.87;;
5121;SDS011;2563;52.242;7.956;2022-08-21T04:37:30;17.83;;;4.40;;
5121;SDS011;2563;52.242;7.956;2022-08-21T04:39:56;15.60;;;5.57;;
5121;SDS011;2563;52.242;7.956;2022-08-21T04:42:23;10.17;;;4.30;;
5121;SDS011;2563;52.242;7.956;2022-08-21T04:44:49;9.63;;;5.10;;
5121;SDS011;2563;52.242;7.956;2022-08-21T04:47:15;15.80;;;5.40;;
5121;SDS011;2563;52.242;7.956;2022-08-21T04:49:41;19.97;;;5.23;;
5121;SDS011;2563;52.242;7.956;2022-08-21T04:52:07;16.30;;;5.47;;
5121;SDS011;2563;52.242;7.956;2022-08-21T04:54:32;17.63;;;5.37;;
5121;SDS011;2563;52.242;7.956;2022-08-21T04:57:02;10.30;;;5.13;;
5121;SDS011;2563;52.242;7.956;2022-08-21T04:59:35;14.03;;;5.20;;
5121;SDS011;2563;52.242;7.956;2022-08-21T05:02:03;10.30;;;4.73;;
5121;SDS011;2563;52.242;7.956;2022-08-21T05:04:32;13.30;;;5.60;;
5121;SDS011;2563;52.242;7.956;2022-08-21T05:06:59;11.53;;;5.70;;
5121;SDS011;2563;52.242;7.956;2022-08-21T05:09:28;17.17;;;5.37;;
5121;SDS011;2563;52.242;7.956;2022-08-21T05:11:55;15.30;;;5.23;;
5121;SDS011;2563;52.242;7.956;2022-08-21T05:14:21;13.23;;;5.87;;
5121;SDS011;2563;52.242;7.956;2022-08-21T05:16:46;12.20;;;5.80;;
5121;SDS011;2563;52.242;7.956;2022-08-21T05:19:12;11.57;;;5.53;;
5121;SDS011;2563;52.242;7.956;2022-08-21T05:21:39;13.33;;;5.50;;
5121;SDS011;2563;52.242;7.956;2022-08-21T05:24:06;14.20;;;5.70;;
5121;SDS011;2563;52.242;7.956;2022-08-21T05:26:31;11.33;;;6.07;;
5121;SDS011;2563;52.242;7.956;2022-08-21T05:28:57;15.03;;;5.77;;
5121;SDS011;2563;52.242;7.956;2022-08-21T05:31:23;17.17;;;5.97;;
5121;SDS011;2563;52.242;7.956;2022-08-21T05:33:48;10.67;;;5.27;;
5121;SDS011;2563;52.242;7.956;2022-08-21T05:36:14;13.93;;;5.37;;
5121;SDS011;2563;52.242;7.956;2022-08-21T05:38:39;35.83;;;5.83;;
5121;SDS011;2563;52.242;7.956;2022-08-21T05:41:04;11.03;;;5.10;;
5121;SDS011;2563;52.242;7.956;2022-08-21T05:43:30;9.77;;;4.90;;
5121;SDS011;2563;52.242;7.956;2022-08-21T05:45:57;14.30;;;4.73;;
5121;SDS011;2563;52.242;7.956;2022-08-21T05:48:23;10.60;;;5.30;;
5121;SDS011;2563;52.242;7.956;2022-08-21T05:50:50;18.40;;;5.47;;
5121;SDS011;2563;52.242;7.956;2022-08-21T05:53:17;11.10;;;4.53;;
5121;SDS011;2563;52.242;7.956;2022-08-21T05:55:44;13.83;;;4.80;;
5121;SDS011;2563;52.242;7.956;2022-08-21T05:58:10;12.70;;;4.53;;
5121;SDS011;2563;52.242;7.956;2022-08-21T06:00:36;9.10;;;4.47;;
5121;SDS011;2563;52.242;7.956;2022-08-21T06:03:02;11.47;;;4.67;;
5121;SDS011;2563;52.242;7.956;2022-08-21T06:05:27;7.47;;;4.00;;
5121;SDS011;2563;52.242;7.956;2022-08-21T06:07:52;8.90;;;4.90;;
5121;SDS011;2563;52.242;7.956;2022-08-21T06:10:18;15.50;;;5.00;;
5121;SDS011;2563;52.242;7.956;2022-08-21T06:12:43;17.03;;;4.43;;
5121;SDS011;2563;52.242;7.956;2022-08-21T06:15:09;11.73;;;4.33;;
5121;SDS011;2563;52.242;7.956;2022-08-21T06:17:35;10.20;;;4.60;;
5121;SDS011;2563;52.242;7.956;2022-08-21T06:20:00;21.13;;;5.40;;
5121;SDS011;2563;52.242;7.956;2022-08-21T06:22:26;11.90;;;4.87;;
5121;SDS011;2563;52.242;7.956;2022-08-21T06:24:51;12.97;;;4.67;;
5121;SDS011;2563;52.242;7.956;2022-08-21T06:27:16;9.60;;;4.83;;
5121;SDS011;2563;52.242;7.956;2022-08-21T06:29:43;10.30;;;4.63;;
5121;SDS011;2563;52.242;7.956;2022-08-21T06:32:13;8.87;;;5.00;;
5121;SDS011;2563;52.242;7.956;2022-08-21T06:34:39;14.10;;;5.50;;
5121;SDS011;2563;52.242;7.956;2022-08-21T06:37:05;15.93;;;5.23;;
5121;SDS011;2563;52.242;7.956;2022-08-21T06:39:31;12.63;;;5.00;;
5121;SDS011;2563;52.242;7.956;2022-08-21T06:41:57;10.43;;;5.00;;
5121;SDS011;2563;52.242;7.956;2022-08-21T06:44:23;8.43;;;4.47;;
5121;SDS011;2563;52.242;7.956;2022-08-21T06:46:48;9.90;;;4.73;;
5121;SDS011;2563;52.242;7.956;2022-08-21T06:49:13;13.50;;;4.67;;
5121;SDS011;2563;52.242;7.956;2022-08-21T06:51:39;12.17;;;5.10;;
5121;SDS011;2563;52.242;7.956;2022-08-21T06:54:05;15.77;;;4.73;;
5121;SDS011;2563;52.242;7.956;2022-08-21T06:56:30;13.10;;;5.13;;
5121;SDS011;2563;52.242;7.956;2022-08-21T06:58:56;10.60;;;4.80;;
5121;SDS011;2563;52.242;7.956;2022-08-21T07:01:22;23.03;;;4.87;;
5121;SDS011;2563;52.242;7.956;2022-08-21T07:03:49;11.60;;;4.10;;
5121;SDS011;2563;52.242;7.956;2022-08-21T07:06:14;10.43;;;4.40;;
5121;SDS011;2563;52.242;7.956;2022-08-21T07:08:40;17.53;;;5.83;;
5121;SDS011;2563;52.242;7.956;2022-08-21T07:11:24;8.93;;;3.53;;
5121;SDS011;2563;52.242;7.956;2022-08-21T07:13:50;9.87;;;4.33;;
5121;SDS011;2563;52.242;7.956;2022-08-21T07:16:19;9.50;;;4.73;;
5121;SDS011;2563;52.242;7.956;2022-08-21T07:18:45;9.60;;;3.60;;
5121;SDS011;2563;52.242;7.956;2022-08-21T07:21:10;9.20;;;3.90;;
5121;SDS011;2563;52.242;7.956;2022-08-21T07:23:37;11.73;;;3.50;;
5121;SDS011;2563;52.242;7.956;2022-08-21T07:26:07;11.30;;;4.20;;
5121;SDS011;2563;52.242;7.956;2022-08-21T07:28:33;9.77;;;3.90;;
5121;SDS011;2563;52.242;7.956;2022-08-21T07:30:59;9.23;;;3.60;;
5121;SDS011;2563;52.242;7.956;2022-08-21T07:33:26;8.50;;;3.87;;
5121;SDS011;2563;52.242;7.956;2022-08-21T07:35:53;9.10;;;3.87;;
5121;SDS011;2563;52.242;7.956;2022-08-21T07:38:19;8.00;;;4.27;;
5121;SDS011;2563;52.242;7.956;2022-08-21T07:40:45;8.77;;;3.20;;
5121;SDS011;2563;52.242;7.956;2022-08-21T07:43:12;7.13;;;4.10;;
5121;SDS011;2563;52.242;7.956;2022-08-21T07:45:37;10.77;;;3.40;;
5121;SDS011;2563;52.242;7.956;2022-08-21T07:48:03;10.53;;;3.60;;
5121;SDS011;2563;52.242;7.956;2022-08-21T07:50:29;8.27;;;3.60;;
5121;SDS011;2563;52.242;7.956;2022-08-21T07:52:55;14.27;;;3.87;;
5121;SDS011;2563;52.242;7.956;2022-08-21T07:55:20;8.47;;;3.70;;
5121;SDS011;2563;52.242;7.956;2022-08-21T07:57:47;11.03;;;4.20;;
5121;SDS011;2563;52.242;7.956;2022-08-21T08:00:14;11.60;;;3.50;;
5121;SDS011;2563;52.242;7.956;2022-08-21T08:02:44;8.63;;;4.17;;
5121;SDS011;2563;52.242;7.956;2022-08-21T08:05:14;11.00;;;3.60;;
5121;SDS011;2563;52.242;7.956;2022-08-21T08:07:39;9.67;;;3.47;;
5121;SDS011;2563;52.242;7.956;2022-08-21T08:10:05;9.67;;;3.20;;
5121;SDS011;2563;52.242;7.956;2022-08-21T08:12:33;7.03;;;2.90;;
5121;SDS011;2563;52.242;7.956;2022-08-21T08:15:00;13.53;;;3.70;;
5121;SDS011;2563;52.242;7.956;2022-08-21T08:17:27;13.80;;;3.87;;
5121;SDS011;2563;52.242;7.956;2022-08-21T08:19:53;6.20;;;2.50;;
5121;SDS011;2563;52.242;7.956;2022-08-21T08:22:20;8.37;;;3.53;;
5121;SDS011;2563;52.242;7.956;2022-08-21T08:24:48;9.90;;;3.90;;
5121;SDS011;2563;52.242;7.956;2022-08-21T08:27:15;11.87;;;4.20;;
5121;SDS011;2563;52.242;7.956;2022-08-21T08:29:42;10.07;;;3.50;;
5121;SDS011;2563;52.242;7.956;2022-08-21T08:32:07;16.63;;;3.93;;
5121;SDS011;2563;52.242;7.956;2022-08-21T08:34:34;9.53;;;4.30;;
5121;SDS011;2563;52.242;7.956;2022-08-21T08:37:00;47.70;;;22.00;;
5121;SDS011;2563;52.242;7.956;2022-08-21T08:39:26;10.03;;;4.30;;
5121;SDS011;2563;52.242;7.956;2022-08-21T08:41:55;12.00;;;4.10;;
5121;SDS011;2563;52.242;7.956;2022-08-21T08:44:27;13.80;;;3.87;;
5121;SDS011;2563;52.242;7.956;2022-08-21T08:46:53;9.17;;;3.10;;
5121;SDS011;2563;52.242;7.956;2022-08-21T08:49:20;11.27;;;3.87;;
5121;SDS011;2563;52.242;7.956;2022-08-21T08:51:57;11.70;;;4.60;;
5121;SDS011;2563;52.242;7.956;2022-08-21T08:54:34;8.67;;;3.57;;
5121;SDS011;2563;52.242;7.956;2022-08-21T08:57:07;10.57;;;3.90;;
5121;SDS011;2563;52.242;7.956;2022-08-21T09:00:05;11.43;;;4.07;;
5121;SDS011;2563;52.242;7.956;2022-08-21T09:02:32;12.90;;;4.00;;
5121;SDS011;2563;52.242;7.956;2022-08-21T09:04:58;9.90;;;4.13;;
5121;SDS011;2563;52.242;7.956;2022-08-21T09:16:24;9.80;;;4.33;;
5121;SDS011;2563;52.242;7.956;2022-08-21T09:21:58;7.90;;;4.13;;
5121;SDS011;2563;52.242;7.956;2022-08-21T09:27:13;12.47;;;4.67;;
5121;SDS011;2563;52.242;7.956;2022-08-21T09:29:41;7.63;;;3.70;;
5121;SDS011;2563;52.242;7.956;2022-08-21T09:32:11;7.93;;;3.50;;
5121;SDS011;2563;52.242;7.956;2022-08-21T09:34:53;10.60;;;4.40;;
5121;SDS011;2563;52.242;7.956;2022-08-21T09:37:20;7.37;;;3.87;;
5121;SDS011;2563;52.242;7.956;2022-08-21T09:39:46;5.43;;;3.83;;
5121;SDS011;2563;52.242;7.956;2022-08-21T09:42:11;10.10;;;3.90;;
5121;SDS011;2563;52.242;7.956;2022-08-21T09:44:47;9.53;;;3.90;;
5121;SDS011;2563;52.242;7.956;2022-08-21T09:47:13;13.00;;;4.10;;
5121;SDS011;2563;52.242;7.956;2022-08-21T09:49:40;11.10;;;4.93;;
5121;SDS011;2563;52.242;7.956;2022-08-21T09:52:15;14.93;;;4.83;;
5121;SDS011;2563;52.242;7.956;2022-08-21T09:54:44;8.67;;;4.30;;
5121;SDS011;2563;52.242;7.956;2022-08-21T10:02:40;10.13;;;4.30;;
5121;SDS011;2563;52.242;7.956;2022-08-21T10:07:42;10.17;;;3.90;;
5121;SDS011;2563;52.242;7.956;2022-08-21T10:10:16;7.13;;;3.60;;
5121;SDS011;2563;52.242;7.956;2022-08-21T10:26:02;7.37;;;4.70;;
5121;SDS011;2563;52.242;7.956;2022-08-21T10:28:37;12.00;;;4.87;;
5121;SDS011;2563;52.242;7.956;2022-08-21T10:31:14;7.10;;;4.30;;
5121;SDS011;2563;52.242;7.956;2022-08-21T10:39:53;8.57;;;4.97;;
5121;SDS011;2563;52.242;7.956;2022-08-21T10:48:46;5.80;;;4.67;;
5121;SDS011;2563;52.242;7.956;2022-08-21T10:54:19;9.90;;;5.27;;
5121;SDS011;2563;52.242;7.956;2022-08-21T10:57:16;8.47;;;4.80;;
5121;SDS011;2563;52.242;7.956;2022-08-21T11:00:07;8.10;;;4.60;;
5121;SDS011;2563;52.242;7.956;2022-08-21T11:08:08;11.27;;;4.63;;
5121;SDS011;2563;52.242;7.956;2022-08-21T11:10:47;10.43;;;4.77;;
5121;SDS011;2563;52.242;7.956;2022-08-21T11:13:18;9.70;;;5.27;;
5121;SDS011;2563;52.242;7.956;2022-08-21T11:15:55;6.50;;;4.40;;
5121;SDS011;2563;52.242;7.956;2022-08-21T11:23:29;5.27;;;3.03;;
5121;SDS011;2563;52.242;7.956;2022-08-21T11:26:03;7.77;;;4.63;;
5121;SDS011;2563;52.242;7.956;2022-08-21T11:28:54;11.43;;;4.00;;
5121;SDS011;2563;52.242;7.956;2022-08-21T11:31:33;7.93;;;3.70;;
5121;SDS011;2563;52.242;7.956;2022-08-21T11:39:38;7.53;;;3.30;;
5121;SDS011;2563;52.242;7.956;2022-08-21T11:42:28;6.10;;;3.40;;
5121;SDS011;2563;52.242;7.956;2022-08-21T11:50:31;4.60;;;2.40;;
5121;SDS011;2563;52.242;7.956;2022-08-21T11:58:39;7.03;;;2.10;;
5121;SDS011;2563;52.242;7.956;2022-08-21T12:01:18;6.93;;;2.47;;
5121;SDS011;2563;52.242;7.956;2022-08-21T12:03:57;6.43;;;2.60;;
5121;SDS011;2563;52.242;7.956;2022-08-21T12:06:31;4.00;;;2.13;;
5121;SDS011;2563;52.242;7.956;2022-08-21T12:09:07;3.63;;;1.83;;
5121;SDS011;2563;52.242;7.956;2022-08-21T12:11:50;7.60;;;2.00;;
5121;SDS011;2563;52.242;7.956;2022-08-21T12:14:44;3.53;;;1.90;;
5121;SDS011;2563;52.242;7.956;2022-08-21T12:17:22;4.83;;;1.63;;
5121;SDS011;2563;52.242;7.956;2022-08-21T12:20:00;5.37;;;1.83;;
5121;SDS011;2563;52.242;7.956;2022-08-21T12:22:38;6.50;;;1.80;;
5121;SDS011;2563;52.242;7.956;2022-08-21T12:25:06;7.10;;;2.10;;
5121;SDS011;2563;52.242;7.956;2022-08-21T12:30:21;4.03;;;1.40;;
5121;SDS011;2563;52.242;7.956;2022-08-21T12:33:00;5.20;;;1.70;;
5121;SDS011;2563;52.242;7.956;2022-08-21T12:35:31;4.50;;;2.00;;
5121;SDS011;2563;52.242;7.956;2022-08-21T12:38:06;5.70;;;1.60;;
5121;SDS011;2563;52.242;7.956;2022-08-21T12:43:31;4.60;;;2.70;;
5121;SDS011;2563;52.242;7.956;2022-08-21T12:46:01;3.97;;;1.83;;
5121;SDS011;2563;52.242;7.956;2022-08-21T12:48:31;5.00;;;2.30;;
5121;SDS011;2563;52.242;7.956;2022-08-21T12:53:50;3.33;;;2.10;;
5121;SDS011;2563;52.242;7.956;2022-08-21T12:56:19;3.80;;;1.67;;
5121;SDS011;2563;52.242;7.956;2022-08-21T12:58:50;2.43;;;1.53;;
5121;SDS011;2563;52.242;7.956;2022-08-21T13:01:33;5.33;;;2.00;;
5121;SDS011;2563;52.242;7.956;2022-08-21T13:04:13;2.07;;;1.20;;
5121;SDS011;2563;52.242;7.956;2022-08-21T13:06:47;5.40;;;2.07;;
5121;SDS011;2563;52.242;7.956;2022-08-21T13:09:18;4.00;;;1.70;;
5121;SDS011;2563;52.242;7.956;2022-08-21T13:11:48;2.73;;;1.40;;
5121;SDS011;2563;52.242;7.956;2022-08-21T13:14:21;3.10;;;1.40;;
5121;SDS011;2563;52.242;7.956;2022-08-21T13:16:55;4.23;;;1.67;;
5121;SDS011;2563;52.242;7.956;2022-08-21T13:19:22;2.10;;;1.30;;
5121;SDS011;2563;52.242;7.956;2022-08-21T13:21:49;4.67;;;1.60;;
5121;SDS011;2563;52.242;7.956;2022-08-21T13:26:42;3.00;;;1.50;;
5121;SDS011;2563;52.242;7.956;2022-08-21T13:29:12;2.40;;;1.40;;
5121;SDS011;2563;52.242;7.956;2022-08-21T13:31:40;3.33;;;1.83;;
5121;SDS011;2563;52.242;7.956;2022-08-21T13:34:31;3.53;;;2.10;;
5121;SDS011;2563;52.242;7.956;2022-08-21T13:37:02;7.60;;;2.90;;
5121;SDS011;2563;52.242;7.956;2022-08-21T13:39:30;4.50;;;1.93;;
5121;SDS011;2563;52.242;7.956;2022-08-21T13:41:57;3.20;;;1.77;;
5121;SDS011;2563;52.242;7.956;2022-08-21T13:46:56;4.77;;;1.67;;
5121;SDS011;2563;52.242;7.956;2022-08-21T13:49:29;2.50;;;1.70;;
5121;SDS011;2563;52.242;7.956;2022-08-21T13:51:57;3.00;;;2.00;;
5121;SDS011;2563;52.242;7.956;2022-08-21T13:56:48;2.90;;;2.00;;
5121;SDS011;2563;52.242;7.956;2022-08-21T13:59:27;3.60;;;1.93;;
5121;SDS011;2563;52.242;7.956;2022-08-21T14:01:59;4.73;;;2.30;;
5121;SDS011;2563;52.242;7.956;2022-08-21T14:04:59;3.90;;;2.00;;
5121;SDS011;2563;52.242;7.956;2022-08-21T14:07:29;3.93;;;2.27;;
5121;SDS011;2563;52.242;7.956;2022-08-21T14:10:02;3.40;;;2.20;;
5121;SDS011;2563;52.242;7.956;2022-08-21T14:12:59;6.67;;;2.40;;
5121;SDS011;2563;52.242;7.956;2022-08-21T14:15:25;7.37;;;2.03;;
5121;SDS011;2563;52.242;7.956;2022-08-21T14:17:53;4.43;;;1.90;;
5121;SDS011;2563;52.242;7.956;2022-08-21T14:20:29;5.47;;;2.43;;
5121;SDS011;2563;52.242;7.956;2022-08-21T14:22:56;5.23;;;2.10;;
5121;SDS011;2563;52.242;7.956;2022-08-21T14:27:51;7.13;;;2.43;;
5121;SDS011;2563;52.242;7.956;2022-08-21T14:30:20;3.27;;;2.30;;
5121;SDS011;2563;52.242;7.956;2022-08-21T14:32:51;4.20;;;2.13;;
5121;SDS011;2563;52.242;7.956;2022-08-21T14:35:17;5.20;;;2.37;;
5121;SDS011;2563;52.242;7.956;2022-08-21T14:37:43;4.60;;;2.17;;
5121;SDS011;2563;52.242;7.956;2022-08-21T14:40:10;4.87;;;1.80;;
5121;SDS011;2563;52.242;7.956;2022-08-21T14:42:36;4.53;;;1.70;;
5121;SDS011;2563;52.242;7.956;2022-08-21T14:45:05;4.83;;;2.30;;
5121;SDS011;2563;52.242;7.956;2022-08-21T14:47:38;6.90;;;3.30;;
5121;SDS011;2563;52.242;7.956;2022-08-21T14:50:04;9.37;;;2.20;;
5121;SDS011;2563;52.242;7.956;2022-08-21T14:52:30;6.30;;;2.43;;
5121;SDS011;2563;52.242;7.956;2022-08-21T14:54:55;6.97;;;2.50;;
5121;SDS011;2563;52.242;7.956;2022-08-21T14:57:20;3.10;;;2.10;;
5121;SDS011;2563;52.242;7.956;2022-08-21T14:59:47;3.63;;;2.27;;
5121;SDS011;2563;52.242;7.956;2022-08-21T15:02:13;4.37;;;1.80;;
5121;SDS011;2563;52.242;7.956;2022-08-21T15:04:38;7.50;;;2.17;;
5121;SDS011;2563;52.242;7.956;2022-08-21T15:07:03;4.13;;;1.97;;
5121;SDS011;2563;52.242;7.956;2022-08-21T15:09:29;7.37;;;1.87;;
5121;SDS011;2563;52.242;7.956;2022-08-21T15:11:55;4.07;;;1.97;;
5121;SDS011;2563;52.242;7.956;2022-08-21T15:14:23;5.40;;;2.63;;
5121;SDS011;2563;52.242;7.956;2022-08-21T15:16:51;3.83;;;1.60;;
5121;SDS011;2563;52.242;7.956;2022-08-21T15:19:17;3.23;;;1.90;;
5121;SDS011;2563;52.242;7.956;2022-08-21T15:21:42;6.87;;;2.37;;
5121;SDS011;2563;52.242;7.956;2022-08-21T15:24:08;3.83;;;1.87;;
5121;SDS011;2563;52.242;7.956;2022-08-21T15:26:34;3.87;;;1.90;;
5121;SDS011;2563;52.242;7.956;2022-08-21T15:29:00;4.37;;;2.10;;
5121;SDS011;2563;52.242;7.956;2022-08-21T15:31:26;4.00;;;2.03;;
5121;SDS011;2563;52.242;7.956;2022-08-21T15:33:52;2.77;;;1.80;;
5121;SDS011;2563;52.242;7.956;2022-08-21T15:36:18;5.13;;;2.50;;
5121;SDS011;2563;52.242;7.956;2022-08-21T15:38:44;2.90;;;1.50;;
5121;SDS011;2563;52.242;7.956;2022-08-21T15:41:09;3.33;;;2.20;;
5121;SDS011;2563;52.242;7.956;2022-08-21T15:43:40;3.03;;;1.90;;
5121;SDS011;2563;52.242;7.956;2022-08-21T15:46:10;6.67;;;2.47;;
5121;SDS011;2563;52.242;7.956;2022-08-21T15:48:38;5.20;;;2.40;;
5121;SDS011;2563;52.242;7.956;2022-08-21T15:51:03;4.53;;;1.93;;
5121;SDS011;2563;52.242;7.956;2022-08-21T15:53:28;3.87;;;1.70;;
5121;SDS011;2563;52.242;7.956;2022-08-21T15:55:56;2.20;;;1.50;;
5121;SDS011;2563;52.242;7.956;2022-08-21T15:58:22;6.80;;;2.40;;
5121;SDS011;2563;52.242;7.956;2022-08-21T16:00:47;4.20;;;1.90;;
5121;SDS011;2563;52.242;7.956;2022-08-21T16:03:14;4.90;;;2.43;;
5121;SDS011;2563;52.242;7.956;2022-08-21T16:05:42;3.27;;;1.70;;
5121;SDS011;2563;52.242;7.956;2022-08-21T16:08:13;8.50;;;2.20;;
5121;SDS011;2563;52.242;7.956;2022-08-21T16:10:38;3.20;;;1.93;;
5121;SDS011;2563;52.242;7.956;2022-08-21T16:13:06;4.57;;;2.30;;
5121;SDS011;2563;52.242;7.956;2022-08-21T16:15:37;3.80;;;2.33;;
5121;SDS011;2563;52.242;7.956;2022-08-21T16:18:02;4.63;;;2.43;;
5121;SDS011;2563;52.242;7.956;2022-08-21T16:20:29;3.50;;;2.13;;
5121;SDS011;2563;52.242;7.956;2022-08-21T16:22:55;4.63;;;2.00;;
5121;SDS011;2563;52.242;7.956;2022-08-21T16:25:21;4.70;;;2.70;;
5121;SDS011;2563;52.242;7.956;2022-08-21T16:27:49;6.00;;;1.90;;
5121;SDS011;2563;52.242;7.956;2022-08-21T16:30:17;5.13;;;1.80;;
5121;SDS011;2563;52.242;7.956;2022-08-21T16:32:44;3.20;;;1.80;;
5121;SDS011;2563;52.242;7.956;2022-08-21T16:35:11;5.63;;;1.67;;
5121;SDS011;2563;52.242;7.956;2022-08-21T16:37:39;3.23;;;1.80;;
5121;SDS011;2563;52.242;7.956;2022-08-21T16:40:05;4.27;;;1.93;;
5121;SDS011;2563;52.242;7.956;2022-08-21T16:42:34;5.33;;;2.50;;
5121;SDS011;2563;52.242;7.956;2022-08-21T16:45:02;4.40;;;1.97;;
5121;SDS011;2563;52.242;7.956;2022-08-21T16:47:31;3.90;;;1.53;;
5121;SDS011;2563;52.242;7.956;2022-08-21T16:49:57;7.23;;;2.10;;
5121;SDS011;2563;52.242;7.956;2022-08-21T16:52:23;3.10;;;1.50;;
5121;SDS011;2563;52.242;7.956;2022-08-21T16:54:49;2.83;;;1.77;;
5121;SDS011;2563;52.242;7.956;2022-08-21T16:57:14;3.70;;;1.80;;
5121;SDS011;2563;52.242;7.956;2022-08-21T16:59:39;2.60;;;1.63;;